sensor_id;sensor_type;location;lat;lon;timestamp;P1;durP1;ratioP1;P2;durP2;ratioP2
18568;SDS011;14780;48.316;-1.050;2023-07-24T00:02:39;1.92;;;1.50;;
18568;SDS011;14780;48.316;-1.050;2023-07-24T00:05:24;1.67;;;1.35;;
18568;SDS011;14780;48.316;-1.050;2023-07-24T00:08:09;1.63;;;1.50;;
18568;SDS011;14780;48.316;-1.050;2023-07-24T00:10:53;1.40;;;1.30;;
18568;SDS011;14780;48.316;-1.050;2023-07-24T00:13:38;2.90;;;1.65;;
18568;SDS011;14780;48.316;-1.050;2023-07-24T00:16:22;2.05;;;1.63;;
18568;SDS011;14780;48.316;-1.050;2023-07-24T00:19:08;1.90;;;1.40;;
18568;SDS011;14780;48.316;-1.050;2023-07-24T00:21:53;1.58;;;1.40;;
18568;SDS011;14780;48.316;-1.050;2023-07-24T00:24:37;1.65;;;1.48;;
18568;SDS011;14780;48.316;-1.050;2023-07-24T00:27:22;2.30;;;1.60;;
18568;SDS011;14780;48.316;-1.050;2023-07-24T00:30:07;1.70;;;1.50;;
18568;SDS011;14780;48.316;-1.050;2023-07-24T00:32:51;1.85;;;1.42;;
18568;SDS011;14780;48.316;-1.050;2023-07-24T00:35:36;2.50;;;1.70;;
18568;SDS011;14780;48.316;-1.050;2023-07-24T00:38:20;1.80;;;1.58;;
18568;SDS011;14780;48.316;-1.050;2023-07-24T00:41:05;2.28;;;1.80;;
18568;SDS011;14780;48.316;-1.050;2023-07-24T00:43:49;2.38;;;1.42;;
18568;SDS011;14780;48.316;-1.050;2023-07-24T00:46:34;1.92;;;1.50;;
18568;SDS011;14780;48.316;-1.050;2023-07-24T00:49:20;2.90;;;1.90;;
18568;SDS011;14780;48.316;-1.050;2023-07-24T00:52:05;2.55;;;1.60;;
18568;SDS011;14780;48.316;-1.050;2023-07-24T00:54:51;2.25;;;1.50;;
18568;SDS011;14780;48.316;-1.050;2023-07-24T00:57:37;2.57;;;1.60;;
18568;SDS011;14780;48.316;-1.050;2023-07-24T01:00:21;2.88;;;1.90;;
18568;SDS011;14780;48.316;-1.050;2023-07-24T01:03:06;2.72;;;1.88;;
18568;SDS011;14780;48.316;-1.050;2023-07-24T01:05:51;2.20;;;1.80;;
18568;SDS011;14780;48.316;-1.050;2023-07-24T01:08:38;3.67;;;2.13;;
18568;SDS011;14780;48.316;-1.050;2023-07-24T01:11:29;3.95;;;1.98;;
18568;SDS011;14780;48.316;-1.050;2023-07-24T01:17:12;2.38;;;1.70;;
18568;SDS011;14780;48.316;-1.050;2023-07-24T01:20:01;3.60;;;2.08;;
18568;SDS011;14780;48.316;-1.050;2023-07-24T01:26:00;3.03;;;1.88;;
18568;SDS011;14780;48.316;-1.050;2023-07-24T01:28:48;3.73;;;2.23;;
18568;SDS011;14780;48.316;-1.050;2023-07-24T01:31:33;2.95;;;2.00;;
18568;SDS011;14780;48.316;-1.050;2023-07-24T01:34:17;3.22;;;2.00;;
18568;SDS011;14780;48.316;-1.050;2023-07-24T01:37:02;2.88;;;1.95;;
18568;SDS011;14780;48.316;-1.050;2023-07-24T01:39:47;2.75;;;1.90;;
18568;SDS011;14780;48.316;-1.050;2023-07-24T01:42:33;3.20;;;2.00;;
18568;SDS011;14780;48.316;-1.050;2023-07-24T01:45:19;3.80;;;1.83;;
18568;SDS011;14780;48.316;-1.050;2023-07-24T01:48:04;3.75;;;1.95;;
18568;SDS011;14780;48.316;-1.050;2023-07-24T01:50:49;3.38;;;1.90;;
18568;SDS011;14780;48.316;-1.050;2023-07-24T01:53:34;3.03;;;1.90;;
18568;SDS011;14780;48.316;-1.050;2023-07-24T01:56:18;4.38;;;2.05;;
18568;SDS011;14780;48.316;-1.050;2023-07-24T01:59:03;3.07;;;2.10;;
18568;SDS011;14780;48.316;-1.050;2023-07-24T02:01:47;2.83;;;1.83;;
18568;SDS011;14780;48.316;-1.050;2023-07-24T02:04:32;3.35;;;2.13;;
18568;SDS011;14780;48.316;-1.050;2023-07-24T02:07:17;1.98;;;1.70;;
18568;SDS011;14780;48.316;-1.050;2023-07-24T02:10:01;3.08;;;1.95;;
18568;SDS011;14780;48.316;-1.050;2023-07-24T02:12:46;2.95;;;1.90;;
18568;SDS011;14780;48.316;-1.050;2023-07-24T02:15:31;2.03;;;1.80;;
18568;SDS011;14780;48.316;-1.050;2023-07-24T02:18:15;3.10;;;1.90;;
18568;SDS011;14780;48.316;-1.050;2023-07-24T02:21:00;2.10;;;1.73;;
18568;SDS011;14780;48.316;-1.050;2023-07-24T02:23:45;2.78;;;1.85;;
18568;SDS011;14780;48.316;-1.050;2023-07-24T02:26:29;3.42;;;1.90;;
18568;SDS011;14780;48.316;-1.050;2023-07-24T02:29:14;2.55;;;1.92;;
18568;SDS011;14780;48.316;-1.050;2023-07-24T02:32:00;3.50;;;2.00;;
18568;SDS011;14780;48.316;-1.050;2023-07-24T02:34:45;3.25;;;1.98;;
18568;SDS011;14780;48.316;-1.050;2023-07-24T02:37:29;2.75;;;2.00;;
18568;SDS011;14780;48.316;-1.050;2023-07-24T02:40:14;3.05;;;1.90;;
18568;SDS011;14780;48.316;-1.050;2023-07-24T02:42:59;3.05;;;2.13;;
18568;SDS011;14780;48.316;-1.050;2023-07-24T02:45:43;4.00;;;2.13;;
18568;SDS011;14780;48.316;-1.050;2023-07-24T02:48:28;2.50;;;1.90;;
18568;SDS011;14780;48.316;-1.050;2023-07-24T02:51:12;2.77;;;2.10;;
18568;SDS011;14780;48.316;-1.050;2023-07-24T02:53:57;3.65;;;2.20;;
18568;SDS011;14780;48.316;-1.050;2023-07-24T02:56:42;3.03;;;1.73;;
18568;SDS011;14780;48.316;-1.050;2023-07-24T02:59:26;3.17;;;1.90;;
18568;SDS011;14780;48.316;-1.050;2023-07-24T03:02:13;3.67;;;2.40;;
18568;SDS011;14780;48.316;-1.050;2023-07-24T03:04:57;2.47;;;1.85;;
18568;SDS011;14780;48.316;-1.050;2023-07-24T03:07:42;3.42;;;2.00;;
18568;SDS011;14780;48.316;-1.050;2023-07-24T03:10:27;3.30;;;1.90;;
18568;SDS011;14780;48.316;-1.050;2023-07-24T03:13:11;3.90;;;2.25;;
18568;SDS011;14780;48.316;-1.050;2023-07-24T03:15:57;3.17;;;2.08;;
18568;SDS011;14780;48.316;-1.050;2023-07-24T03:18:42;2.65;;;2.00;;
18568;SDS011;14780;48.316;-1.050;2023-07-24T03:21:27;3.40;;;2.38;;
18568;SDS011;14780;48.316;-1.050;2023-07-24T03:24:12;3.53;;;2.15;;
18568;SDS011;14780;48.316;-1.050;2023-07-24T03:26:57;2.80;;;2.00;;
18568;SDS011;14780;48.316;-1.050;2023-07-24T03:29:44;2.65;;;2.00;;
18568;SDS011;14780;48.316;-1.050;2023-07-24T03:32:28;3.63;;;2.13;;
18568;SDS011;14780;48.316;-1.050;2023-07-24T03:35:13;3.67;;;2.63;;
18568;SDS011;14780;48.316;-1.050;2023-07-24T03:37:57;2.90;;;2.10;;
18568;SDS011;14780;48.316;-1.050;2023-07-24T03:40:41;3.25;;;2.15;;
18568;SDS011;14780;48.316;-1.050;2023-07-24T03:43:26;4.03;;;2.20;;
18568;SDS011;14780;48.316;-1.050;2023-07-24T03:46:11;4.38;;;2.40;;
18568;SDS011;14780;48.316;-1.050;2023-07-24T03:48:55;4.55;;;2.53;;
18568;SDS011;14780;48.316;-1.050;2023-07-24T03:51:40;3.30;;;2.20;;
18568;SDS011;14780;48.316;-1.050;2023-07-24T03:54:24;3.42;;;2.25;;
18568;SDS011;14780;48.316;-1.050;2023-07-24T03:57:09;2.47;;;2.00;;
18568;SDS011;14780;48.316;-1.050;2023-07-24T03:59:53;3.83;;;2.43;;
18568;SDS011;14780;48.316;-1.050;2023-07-24T04:02:38;3.42;;;2.20;;
18568;SDS011;14780;48.316;-1.050;2023-07-24T04:05:23;3.47;;;2.20;;
18568;SDS011;14780;48.316;-1.050;2023-07-24T04:08:08;4.57;;;2.33;;
18568;SDS011;14780;48.316;-1.050;2023-07-24T04:10:52;3.65;;;2.47;;
18568;SDS011;14780;48.316;-1.050;2023-07-24T04:13:39;5.70;;;2.70;;
18568;SDS011;14780;48.316;-1.050;2023-07-24T04:16:24;3.88;;;2.60;;
18568;SDS011;14780;48.316;-1.050;2023-07-24T04:19:10;3.45;;;2.15;;
18568;SDS011;14780;48.316;-1.050;2023-07-24T04:21:54;3.85;;;2.35;;
18568;SDS011;14780;48.316;-1.050;2023-07-24T04:24:39;3.53;;;2.30;;
18568;SDS011;14780;48.316;-1.050;2023-07-24T04:27:23;3.58;;;2.30;;
18568;SDS011;14780;48.316;-1.050;2023-07-24T04:30:08;4.95;;;2.45;;
18568;SDS011;14780;48.316;-1.050;2023-07-24T04:32:53;4.25;;;2.60;;
18568;SDS011;14780;48.316;-1.050;2023-07-24T04:35:38;3.28;;;2.22;;
18568;SDS011;14780;48.316;-1.050;2023-07-24T04:38:22;4.28;;;2.60;;
18568;SDS011;14780;48.316;-1.050;2023-07-24T04:41:07;3.47;;;2.15;;
18568;SDS011;14780;48.316;-1.050;2023-07-24T04:43:52;4.30;;;2.60;;
18568;SDS011;14780;48.316;-1.050;2023-07-24T04:46:37;3.80;;;2.58;;
18568;SDS011;14780;48.316;-1.050;2023-07-24T04:49:21;4.20;;;2.42;;
18568;SDS011;14780;48.316;-1.050;2023-07-24T04:52:06;4.28;;;2.55;;
18568;SDS011;14780;48.316;-1.050;2023-07-24T04:54:51;3.65;;;2.40;;
18568;SDS011;14780;48.316;-1.050;2023-07-24T04:57:35;4.90;;;2.78;;
18568;SDS011;14780;48.316;-1.050;2023-07-24T05:00:20;4.07;;;2.10;;
18568;SDS011;14780;48.316;-1.050;2023-07-24T05:03:05;3.75;;;2.50;;
18568;SDS011;14780;48.316;-1.050;2023-07-24T05:05:55;3.40;;;2.30;;
18568;SDS011;14780;48.316;-1.050;2023-07-24T05:08:40;3.58;;;2.28;;
18568;SDS011;14780;48.316;-1.050;2023-07-24T05:11:25;5.32;;;2.40;;
18568;SDS011;14780;48.316;-1.050;2023-07-24T05:14:09;4.05;;;2.33;;
18568;SDS011;14780;48.316;-1.050;2023-07-24T05:16:54;4.10;;;2.65;;
18568;SDS011;14780;48.316;-1.050;2023-07-24T05:19:39;4.37;;;2.50;;
18568;SDS011;14780;48.316;-1.050;2023-07-24T05:22:24;5.22;;;2.47;;
18568;SDS011;14780;48.316;-1.050;2023-07-24T05:25:09;6.70;;;2.63;;
18568;SDS011;14780;48.316;-1.050;2023-07-24T05:27:53;4.18;;;2.40;;
18568;SDS011;14780;48.316;-1.050;2023-07-24T05:30:38;4.75;;;2.58;;
18568;SDS011;14780;48.316;-1.050;2023-07-24T05:33:22;3.70;;;2.37;;
18568;SDS011;14780;48.316;-1.050;2023-07-24T05:36:07;5.05;;;2.75;;
18568;SDS011;14780;48.316;-1.050;2023-07-24T05:38:52;4.38;;;2.17;;
18568;SDS011;14780;48.316;-1.050;2023-07-24T05:41:36;3.97;;;2.55;;
18568;SDS011;14780;48.316;-1.050;2023-07-24T05:44:21;3.60;;;2.20;;
18568;SDS011;14780;48.316;-1.050;2023-07-24T05:47:05;5.38;;;2.80;;
18568;SDS011;14780;48.316;-1.050;2023-07-24T05:49:51;4.38;;;2.42;;
18568;SDS011;14780;48.316;-1.050;2023-07-24T05:52:36;3.80;;;2.50;;
18568;SDS011;14780;48.316;-1.050;2023-07-24T05:55:20;3.10;;;2.28;;
18568;SDS011;14780;48.316;-1.050;2023-07-24T05:58:05;5.32;;;2.50;;
18568;SDS011;14780;48.316;-1.050;2023-07-24T06:00:50;3.50;;;2.30;;
18568;SDS011;14780;48.316;-1.050;2023-07-24T06:03:34;3.63;;;2.33;;
18568;SDS011;14780;48.316;-1.050;2023-07-24T06:06:20;2.78;;;2.20;;
18568;SDS011;14780;48.316;-1.050;2023-07-24T06:09:04;3.90;;;2.20;;
18568;SDS011;14780;48.316;-1.050;2023-07-24T06:11:49;3.95;;;2.30;;
18568;SDS011;14780;48.316;-1.050;2023-07-24T06:14:33;3.85;;;2.47;;
18568;SDS011;14780;48.316;-1.050;2023-07-24T06:17:18;4.57;;;2.42;;
18568;SDS011;14780;48.316;-1.050;2023-07-24T06:20:03;3.45;;;2.30;;
18568;SDS011;14780;48.316;-1.050;2023-07-24T06:22:48;2.85;;;2.00;;
18568;SDS011;14780;48.316;-1.050;2023-07-24T06:25:33;3.28;;;2.30;;
18568;SDS011;14780;48.316;-1.050;2023-07-24T06:28:18;3.75;;;2.30;;
18568;SDS011;14780;48.316;-1.050;2023-07-24T06:31:02;3.38;;;1.90;;
18568;SDS011;14780;48.316;-1.050;2023-07-24T06:33:47;3.38;;;2.10;;
18568;SDS011;14780;48.316;-1.050;2023-07-24T06:36:32;3.55;;;2.20;;
18568;SDS011;14780;48.316;-1.050;2023-07-24T06:39:16;4.40;;;2.40;;
18568;SDS011;14780;48.316;-1.050;2023-07-24T06:42:01;4.88;;;2.47;;
18568;SDS011;14780;48.316;-1.050;2023-07-24T06:44:46;3.47;;;2.20;;
18568;SDS011;14780;48.316;-1.050;2023-07-24T06:47:30;4.82;;;2.50;;
18568;SDS011;14780;48.316;-1.050;2023-07-24T06:50:15;3.67;;;2.37;;
18568;SDS011;14780;48.316;-1.050;2023-07-24T06:53:00;4.30;;;2.47;;
18568;SDS011;14780;48.316;-1.050;2023-07-24T06:55:44;3.10;;;2.10;;
18568;SDS011;14780;48.316;-1.050;2023-07-24T06:58:29;3.03;;;2.10;;
18568;SDS011;14780;48.316;-1.050;2023-07-24T07:01:13;5.03;;;2.60;;
18568;SDS011;14780;48.316;-1.050;2023-07-24T07:03:58;4.85;;;2.33;;
18568;SDS011;14780;48.316;-1.050;2023-07-24T07:06:43;3.95;;;2.30;;
18568;SDS011;14780;48.316;-1.050;2023-07-24T07:09:27;3.83;;;2.42;;
18568;SDS011;14780;48.316;-1.050;2023-07-24T07:12:12;5.43;;;2.40;;
18568;SDS011;14780;48.316;-1.050;2023-07-24T07:14:57;3.80;;;2.25;;
18568;SDS011;14780;48.316;-1.050;2023-07-24T07:17:41;4.18;;;2.10;;
18568;SDS011;14780;48.316;-1.050;2023-07-24T07:20:26;3.95;;;2.38;;
18568;SDS011;14780;48.316;-1.050;2023-07-24T07:23:11;4.35;;;2.42;;
18568;SDS011;14780;48.316;-1.050;2023-07-24T07:25:56;4.03;;;2.50;;
18568;SDS011;14780;48.316;-1.050;2023-07-24T07:28:40;4.40;;;2.53;;
18568;SDS011;14780;48.316;-1.050;2023-07-24T07:31:26;3.63;;;2.22;;
18568;SDS011;14780;48.316;-1.050;2023-07-24T07:34:10;5.78;;;2.45;;
18568;SDS011;14780;48.316;-1.050;2023-07-24T07:36:55;3.60;;;2.20;;
18568;SDS011;14780;48.316;-1.050;2023-07-24T07:39:40;3.33;;;2.25;;
18568;SDS011;14780;48.316;-1.050;2023-07-24T07:42:24;4.93;;;2.30;;
18568;SDS011;14780;48.316;-1.050;2023-07-24T07:45:09;6.07;;;2.20;;
18568;SDS011;14780;48.316;-1.050;2023-07-24T07:47:54;3.43;;;2.40;;
18568;SDS011;14780;48.316;-1.050;2023-07-24T07:50:39;4.40;;;2.30;;
18568;SDS011;14780;48.316;-1.050;2023-07-24T07:53:23;3.50;;;2.30;;
18568;SDS011;14780;48.316;-1.050;2023-07-24T07:56:08;3.40;;;2.13;;
18568;SDS011;14780;48.316;-1.050;2023-07-24T07:58:52;4.03;;;2.20;;
18568;SDS011;14780;48.316;-1.050;2023-07-24T08:01:38;3.75;;;2.15;;
18568;SDS011;14780;48.316;-1.050;2023-07-24T08:04:25;4.03;;;2.33;;
18568;SDS011;14780;48.316;-1.050;2023-07-24T08:07:10;4.78;;;2.42;;
18568;SDS011;14780;48.316;-1.050;2023-07-24T08:09:55;5.78;;;2.33;;
18568;SDS011;14780;48.316;-1.050;2023-07-24T08:12:39;3.78;;;2.20;;
18568;SDS011;14780;48.316;-1.050;2023-07-24T08:15:24;6.30;;;2.70;;
18568;SDS011;14780;48.316;-1.050;2023-07-24T08:18:08;4.50;;;2.35;;
18568;SDS011;14780;48.316;-1.050;2023-07-24T08:20:53;5.03;;;2.42;;
18568;SDS011;14780;48.316;-1.050;2023-07-24T08:23:38;2.92;;;2.20;;
18568;SDS011;14780;48.316;-1.050;2023-07-24T08:26:22;5.50;;;2.25;;
18568;SDS011;14780;48.316;-1.050;2023-07-24T08:29:10;3.97;;;2.35;;
18568;SDS011;14780;48.316;-1.050;2023-07-24T08:31:54;4.55;;;2.35;;
18568;SDS011;14780;48.316;-1.050;2023-07-24T08:34:39;3.50;;;2.25;;
18568;SDS011;14780;48.316;-1.050;2023-07-24T08:37:24;4.00;;;2.40;;
18568;SDS011;14780;48.316;-1.050;2023-07-24T08:40:09;4.82;;;2.28;;
18568;SDS011;14780;48.316;-1.050;2023-07-24T08:42:54;3.33;;;1.90;;
18568;SDS011;14780;48.316;-1.050;2023-07-24T08:45:40;3.40;;;1.92;;
18568;SDS011;14780;48.316;-1.050;2023-07-24T08:48:25;3.63;;;2.30;;
18568;SDS011;14780;48.316;-1.050;2023-07-24T08:51:29;3.20;;;2.00;;
18568;SDS011;14780;48.316;-1.050;2023-07-24T08:54:15;3.00;;;1.73;;
18568;SDS011;14780;48.316;-1.050;2023-07-24T08:57:00;3.55;;;1.90;;
18568;SDS011;14780;48.316;-1.050;2023-07-24T08:59:46;2.97;;;1.90;;
18568;SDS011;14780;48.316;-1.050;2023-07-24T09:02:31;4.00;;;2.10;;
18568;SDS011;14780;48.316;-1.050;2023-07-24T09:05:17;3.70;;;2.17;;
18568;SDS011;14780;48.316;-1.050;2023-07-24T09:08:02;3.70;;;2.20;;
18568;SDS011;14780;48.316;-1.050;2023-07-24T09:10:49;3.25;;;1.95;;
18568;SDS011;14780;48.316;-1.050;2023-07-24T09:13:37;4.72;;;2.40;;
18568;SDS011;14780;48.316;-1.050;2023-07-24T09:16:25;4.35;;;2.33;;
18568;SDS011;14780;48.316;-1.050;2023-07-24T09:19:16;4.47;;;2.00;;
18568;SDS011;14780;48.316;-1.050;2023-07-24T09:25:01;3.58;;;2.17;;
18568;SDS011;14780;48.316;-1.050;2023-07-24T09:27:47;3.35;;;1.88;;
18568;SDS011;14780;48.316;-1.050;2023-07-24T09:30:31;4.72;;;2.10;;
18568;SDS011;14780;48.316;-1.050;2023-07-24T09:33:16;2.67;;;1.98;;
18568;SDS011;14780;48.316;-1.050;2023-07-24T09:36:00;3.00;;;1.90;;
18568;SDS011;14780;48.316;-1.050;2023-07-24T09:38:46;3.20;;;1.98;;
18568;SDS011;14780;48.316;-1.050;2023-07-24T09:41:31;3.75;;;2.10;;
18568;SDS011;14780;48.316;-1.050;2023-07-24T09:44:15;3.42;;;1.92;;
18568;SDS011;14780;48.316;-1.050;2023-07-24T09:47:00;3.00;;;2.00;;
18568;SDS011;14780;48.316;-1.050;2023-07-24T09:49:46;3.40;;;1.85;;
18568;SDS011;14780;48.316;-1.050;2023-07-24T09:52:31;2.97;;;1.85;;
18568;SDS011;14780;48.316;-1.050;2023-07-24T09:55:25;2.85;;;1.83;;
18568;SDS011;14780;48.316;-1.050;2023-07-24T09:58:18;4.03;;;2.00;;
18568;SDS011;14780;48.316;-1.050;2023-07-24T10:01:07;3.53;;;1.85;;
18568;SDS011;14780;48.316;-1.050;2023-07-24T10:03:53;3.30;;;1.92;;
18568;SDS011;14780;48.316;-1.050;2023-07-24T10:06:38;2.67;;;1.67;;
18568;SDS011;14780;48.316;-1.050;2023-07-24T10:09:25;3.72;;;2.00;;
18568;SDS011;14780;48.316;-1.050;2023-07-24T10:12:10;3.25;;;1.90;;
18568;SDS011;14780;48.316;-1.050;2023-07-24T10:14:55;3.75;;;2.00;;
18568;SDS011;14780;48.316;-1.050;2023-07-24T10:17:42;3.45;;;2.00;;
18568;SDS011;14780;48.316;-1.050;2023-07-24T10:20:32;4.10;;;1.85;;
18568;SDS011;14780;48.316;-1.050;2023-07-24T10:23:18;3.58;;;1.90;;
18568;SDS011;14780;48.316;-1.050;2023-07-24T10:26:06;3.15;;;1.80;;
18568;SDS011;14780;48.316;-1.050;2023-07-24T10:28:52;3.80;;;1.92;;
18568;SDS011;14780;48.316;-1.050;2023-07-24T10:31:37;3.72;;;2.17;;
18568;SDS011;14780;48.316;-1.050;2023-07-24T10:34:23;2.60;;;1.80;;
18568;SDS011;14780;48.316;-1.050;2023-07-24T10:37:08;5.18;;;2.30;;
18568;SDS011;14780;48.316;-1.050;2023-07-24T10:39:56;3.92;;;2.00;;
18568;SDS011;14780;48.316;-1.050;2023-07-24T10:42:40;3.13;;;1.85;;
18568;SDS011;14780;48.316;-1.050;2023-07-24T10:45:25;2.80;;;1.83;;
18568;SDS011;14780;48.316;-1.050;2023-07-24T10:48:10;3.30;;;1.88;;
18568;SDS011;14780;48.316;-1.050;2023-07-24T10:50:56;3.03;;;2.00;;
18568;SDS011;14780;48.316;-1.050;2023-07-24T10:53:43;2.70;;;1.80;;
18568;SDS011;14780;48.316;-1.050;2023-07-24T10:56:29;3.28;;;2.13;;
18568;SDS011;14780;48.316;-1.050;2023-07-24T10:59:14;3.92;;;1.90;;
18568;SDS011;14780;48.316;-1.050;2023-07-24T11:01:59;3.72;;;1.90;;
18568;SDS011;14780;48.316;-1.050;2023-07-24T11:04:46;4.22;;;1.75;;
18568;SDS011;14780;48.316;-1.050;2023-07-24T11:07:32;3.97;;;1.98;;
18568;SDS011;14780;48.316;-1.050;2023-07-24T11:10:21;4.47;;;2.00;;
18568;SDS011;14780;48.316;-1.050;2023-07-24T11:13:09;4.95;;;2.00;;
18568;SDS011;14780;48.316;-1.050;2023-07-24T11:15:55;3.10;;;1.90;;
18568;SDS011;14780;48.316;-1.050;2023-07-24T11:18:43;2.85;;;1.75;;
18568;SDS011;14780;48.316;-1.050;2023-07-24T11:21:33;2.83;;;1.88;;
18568;SDS011;14780;48.316;-1.050;2023-07-24T11:24:20;3.53;;;1.60;;
18568;SDS011;14780;48.316;-1.050;2023-07-24T11:27:08;2.67;;;1.55;;
18568;SDS011;14780;48.316;-1.050;2023-07-24T11:29:57;2.93;;;1.90;;
18568;SDS011;14780;48.316;-1.050;2023-07-24T11:32:42;2.72;;;1.75;;
18568;SDS011;14780;48.316;-1.050;2023-07-24T11:35:28;2.97;;;1.93;;
18568;SDS011;14780;48.316;-1.050;2023-07-24T11:38:13;2.88;;;1.98;;
18568;SDS011;14780;48.316;-1.050;2023-07-24T11:40:59;3.45;;;1.95;;
18568;SDS011;14780;48.316;-1.050;2023-07-24T11:43:48;2.27;;;1.53;;
18568;SDS011;14780;48.316;-1.050;2023-07-24T11:46:34;2.97;;;1.85;;
18568;SDS011;14780;48.316;-1.050;2023-07-24T11:49:18;3.63;;;1.90;;
18568;SDS011;14780;48.316;-1.050;2023-07-24T11:52:03;2.97;;;1.83;;
18568;SDS011;14780;48.316;-1.050;2023-07-24T11:54:56;2.33;;;1.58;;
18568;SDS011;14780;48.316;-1.050;2023-07-24T11:58:05;2.63;;;1.60;;
18568;SDS011;14780;48.316;-1.050;2023-07-24T12:00:49;2.75;;;1.92;;
18568;SDS011;14780;48.316;-1.050;2023-07-24T12:03:35;2.67;;;1.65;;
18568;SDS011;14780;48.316;-1.050;2023-07-24T12:06:20;2.67;;;1.95;;
18568;SDS011;14780;48.316;-1.050;2023-07-24T12:09:07;2.30;;;1.60;;
18568;SDS011;14780;48.316;-1.050;2023-07-24T12:11:57;2.72;;;1.83;;
18568;SDS011;14780;48.316;-1.050;2023-07-24T12:14:42;2.60;;;1.75;;
18568;SDS011;14780;48.316;-1.050;2023-07-24T12:17:27;2.08;;;1.50;;
18568;SDS011;14780;48.316;-1.050;2023-07-24T12:20:12;3.75;;;2.03;;
18568;SDS011;14780;48.316;-1.050;2023-07-24T12:22:57;2.83;;;1.93;;
18568;SDS011;14780;48.316;-1.050;2023-07-24T12:25:42;2.80;;;1.95;;
18568;SDS011;14780;48.316;-1.050;2023-07-24T12:28:26;2.00;;;1.70;;
18568;SDS011;14780;48.316;-1.050;2023-07-24T12:31:11;3.10;;;1.70;;
18568;SDS011;14780;48.316;-1.050;2023-07-24T12:33:56;3.33;;;1.70;;
18568;SDS011;14780;48.316;-1.050;2023-07-24T12:36:41;3.70;;;1.73;;
18568;SDS011;14780;48.316;-1.050;2023-07-24T12:39:25;3.28;;;1.65;;
18568;SDS011;14780;48.316;-1.050;2023-07-24T12:42:10;3.85;;;1.90;;
18568;SDS011;14780;48.316;-1.050;2023-07-24T12:44:55;3.65;;;1.77;;
18568;SDS011;14780;48.316;-1.050;2023-07-24T12:47:41;3.08;;;1.80;;
18568;SDS011;14780;48.316;-1.050;2023-07-24T12:50:25;2.63;;;1.90;;
18568;SDS011;14780;48.316;-1.050;2023-07-24T12:53:10;2.23;;;1.60;;
18568;SDS011;14780;48.316;-1.050;2023-07-24T12:55:55;2.55;;;1.70;;
18568;SDS011;14780;48.316;-1.050;2023-07-24T12:58:40;2.85;;;1.65;;
18568;SDS011;14780;48.316;-1.050;2023-07-24T13:01:24;2.80;;;1.90;;
18568;SDS011;14780;48.316;-1.050;2023-07-24T13:04:12;2.30;;;1.50;;
18568;SDS011;14780;48.316;-1.050;2023-07-24T13:06:57;1.63;;;1.40;;
18568;SDS011;14780;48.316;-1.050;2023-07-24T13:09:43;2.80;;;1.60;;
18568;SDS011;14780;48.316;-1.050;2023-07-24T13:12:28;2.88;;;1.63;;
18568;SDS011;14780;48.316;-1.050;2023-07-24T13:15:14;2.63;;;1.80;;
18568;SDS011;14780;48.316;-1.050;2023-07-24T13:17:59;7.13;;;1.70;;
18568;SDS011;14780;48.316;-1.050;2023-07-24T13:20:44;1.83;;;1.30;;
18568;SDS011;14780;48.316;-1.050;2023-07-24T13:23:29;3.80;;;1.65;;
18568;SDS011;14780;48.316;-1.050;2023-07-24T13:26:14;1.93;;;1.40;;
18568;SDS011;14780;48.316;-1.050;2023-07-24T13:28:59;2.95;;;1.67;;
18568;SDS011;14780;48.316;-1.050;2023-07-24T13:31:44;2.05;;;1.60;;
18568;SDS011;14780;48.316;-1.050;2023-07-24T13:34:29;1.85;;;1.40;;
18568;SDS011;14780;48.316;-1.050;2023-07-24T13:37:13;2.17;;;1.60;;
18568;SDS011;14780;48.316;-1.050;2023-07-24T13:39:58;2.60;;;1.70;;
18568;SDS011;14780;48.316;-1.050;2023-07-24T13:42:43;1.73;;;1.30;;
18568;SDS011;14780;48.316;-1.050;2023-07-24T13:45:28;3.75;;;1.55;;
18568;SDS011;14780;48.316;-1.050;2023-07-24T13:48:12;2.45;;;1.67;;
18568;SDS011;14780;48.316;-1.050;2023-07-24T13:50:57;1.30;;;1.20;;
18568;SDS011;14780;48.316;-1.050;2023-07-24T13:53:41;1.83;;;1.50;;
18568;SDS011;14780;48.316;-1.050;2023-07-24T13:56:26;2.78;;;1.63;;
18568;SDS011;14780;48.316;-1.050;2023-07-24T13:59:13;2.13;;;1.55;;
18568;SDS011;14780;48.316;-1.050;2023-07-24T14:01:57;3.20;;;1.38;;
18568;SDS011;14780;48.316;-1.050;2023-07-24T14:04:42;2.37;;;1.60;;
18568;SDS011;14780;48.316;-1.050;2023-07-24T14:07:27;2.05;;;1.30;;
18568;SDS011;14780;48.316;-1.050;2023-07-24T14:10:11;2.63;;;1.75;;
18568;SDS011;14780;48.316;-1.050;2023-07-24T14:12:56;2.53;;;1.60;;
18568;SDS011;14780;48.316;-1.050;2023-07-24T14:15:41;2.93;;;1.43;;
18568;SDS011;14780;48.316;-1.050;2023-07-24T14:18:25;2.33;;;1.50;;
18568;SDS011;14780;48.316;-1.050;2023-07-24T14:21:10;2.45;;;1.45;;
18568;SDS011;14780;48.316;-1.050;2023-07-24T14:23:55;2.28;;;1.42;;
18568;SDS011;14780;48.316;-1.050;2023-07-24T14:26:40;2.00;;;1.58;;
18568;SDS011;14780;48.316;-1.050;2023-07-24T14:29:25;2.47;;;1.60;;
18568;SDS011;14780;48.316;-1.050;2023-07-24T14:32:10;2.07;;;1.53;;
18568;SDS011;14780;48.316;-1.050;2023-07-24T14:34:55;2.33;;;1.52;;
18568;SDS011;14780;48.316;-1.050;2023-07-24T14:37:40;2.53;;;1.55;;
18568;SDS011;14780;48.316;-1.050;2023-07-24T14:40:24;2.72;;;1.55;;
18568;SDS011;14780;48.316;-1.050;2023-07-24T14:43:09;2.05;;;1.40;;
18568;SDS011;14780;48.316;-1.050;2023-07-24T14:45:53;1.40;;;1.30;;
18568;SDS011;14780;48.316;-1.050;2023-07-24T14:48:38;1.58;;;1.48;;
18568;SDS011;14780;48.316;-1.050;2023-07-24T14:51:23;2.15;;;1.50;;
18568;SDS011;14780;48.316;-1.050;2023-07-24T14:54:09;2.50;;;1.63;;
18568;SDS011;14780;48.316;-1.050;2023-07-24T14:56:54;1.70;;;1.35;;
18568;SDS011;14780;48.316;-1.050;2023-07-24T14:59:39;2.85;;;1.55;;
18568;SDS011;14780;48.316;-1.050;2023-07-24T15:02:23;3.25;;;1.80;;
18568;SDS011;14780;48.316;-1.050;2023-07-24T15:05:08;1.58;;;1.30;;
18568;SDS011;14780;48.316;-1.050;2023-07-24T15:07:52;2.22;;;1.38;;
18568;SDS011;14780;48.316;-1.050;2023-07-24T15:10:37;1.60;;;1.45;;
18568;SDS011;14780;48.316;-1.050;2023-07-24T15:13:22;2.58;;;1.55;;
18568;SDS011;14780;48.316;-1.050;2023-07-24T15:16:06;2.25;;;1.70;;
18568;SDS011;14780;48.316;-1.050;2023-07-24T15:18:52;1.80;;;1.30;;
18568;SDS011;14780;48.316;-1.050;2023-07-24T15:21:36;2.20;;;1.40;;
18568;SDS011;14780;48.316;-1.050;2023-07-24T15:24:21;2.90;;;1.40;;
18568;SDS011;14780;48.316;-1.050;2023-07-24T15:27:06;1.37;;;1.27;;
18568;SDS011;14780;48.316;-1.050;2023-07-24T15:29:54;1.98;;;1.38;;
18568;SDS011;14780;48.316;-1.050;2023-07-24T15:32:38;2.20;;;1.50;;
18568;SDS011;14780;48.316;-1.050;2023-07-24T15:35:23;2.47;;;1.40;;
18568;SDS011;14780;48.316;-1.050;2023-07-24T15:38:07;1.98;;;1.50;;
18568;SDS011;14780;48.316;-1.050;2023-07-24T15:40:52;1.60;;;1.40;;
18568;SDS011;14780;48.316;-1.050;2023-07-24T15:43:37;2.08;;;1.38;;
18568;SDS011;14780;48.316;-1.050;2023-07-24T15:46:22;1.83;;;1.58;;
18568;SDS011;14780;48.316;-1.050;2023-07-24T15:49:06;1.63;;;1.33;;
18568;SDS011;14780;48.316;-1.050;2023-07-24T15:51:51;2.33;;;1.50;;
18568;SDS011;14780;48.316;-1.050;2023-07-24T15:54:35;2.17;;;1.50;;
18568;SDS011;14780;48.316;-1.050;2023-07-24T15:57:20;1.77;;;1.40;;
18568;SDS011;14780;48.316;-1.050;2023-07-24T16:00:04;2.05;;;1.40;;
18568;SDS011;14780;48.316;-1.050;2023-07-24T16:02:52;1.20;;;1.10;;
18568;SDS011;14780;48.316;-1.050;2023-07-24T16:05:37;1.65;;;1.40;;
18568;SDS011;14780;48.316;-1.050;2023-07-24T16:08:21;1.52;;;1.25;;
18568;SDS011;14780;48.316;-1.050;2023-07-24T16:11:06;1.83;;;1.30;;
18568;SDS011;14780;48.316;-1.050;2023-07-24T16:13:51;2.40;;;1.25;;
18568;SDS011;14780;48.316;-1.050;2023-07-24T16:16:36;1.38;;;1.20;;
18568;SDS011;14780;48.316;-1.050;2023-07-24T16:19:20;1.90;;;1.40;;
18568;SDS011;14780;48.316;-1.050;2023-07-24T16:22:06;1.40;;;1.30;;
18568;SDS011;14780;48.316;-1.050;2023-07-24T16:24:52;1.48;;;1.38;;
18568;SDS011;14780;48.316;-1.050;2023-07-24T16:27:37;1.90;;;1.42;;
18568;SDS011;14780;48.316;-1.050;2023-07-24T16:30:22;2.20;;;1.50;;